sensor_id;sensor_type;location;lat;lon;timestamp;temperature;humidity
63648;DHT22;49792;48.744;9.176;2022-10-31T00:02:12;19.70;74.30
63648;DHT22;49792;48.744;9.176;2022-10-31T00:04:37;19.70;74.30
63648;DHT22;49792;48.744;9.176;2022-10-31T00:07:03;19.70;74.80
63648;DHT22;49792;48.744;9.176;2022-10-31T00:09:28;19.70;74.70
63648;DHT22;49792;48.744;9.176;2022-10-31T00:11:53;19.60;74.50
63648;DHT22;49792;48.744;9.176;2022-10-31T00:14:22;19.70;74.60
63648;DHT22;49792;48.744;9.176;2022-10-31T00:16:47;19.70;74.60
63648;DHT22;49792;48.744;9.176;2022-10-31T00:19:12;19.70;74.50
63648;DHT22;49792;48.744;9.176;2022-10-31T00:21:38;19.70;74.60
63648;DHT22;49792;48.744;9.176;2022-10-31T00:24:04;19.70;74.60
63648;DHT22;49792;48.744;9.176;2022-10-31T00:26:30;19.70;74.70
63648;DHT22;49792;48.744;9.176;2022-10-31T00:28:56;19.70;74.40
63648;DHT22;49792;48.744;9.176;2022-10-31T00:31:21;19.70;75.10
63648;DHT22;49792;48.744;9.176;2022-10-31T00:33:47;19.70;74.80
63648;DHT22;49792;48.744;9.176;2022-10-31T00:36:13;19.80;74.70
63648;DHT22;49792;48.744;9.176;2022-10-31T00:38:39;19.70;75.10
63648;DHT22;49792;48.744;9.176;2022-10-31T00:41:05;19.70;75.10
63648;DHT22;49792;48.744;9.176;2022-10-31T00:43:30;19.80;75.00
63648;DHT22;49792;48.744;9.176;2022-10-31T00:45:56;19.70;75.10
63648;DHT22;49792;48.744;9.176;2022-10-31T00:48:21;19.70;75.20
63648;DHT22;49792;48.744;9.176;2022-10-31T00:50:46;19.70;75.10
63648;DHT22;49792;48.744;9.176;2022-10-31T00:53:12;19.70;75.30
63648;DHT22;49792;48.744;9.176;2022-10-31T00:55:37;19.70;75.20
63648;DHT22;49792;48.744;9.176;2022-10-31T00:58:03;19.70;75.20
63648;DHT22;49792;48.744;9.176;2022-10-31T01:00:28;19.70;75.40
63648;DHT22;49792;48.744;9.176;2022-10-31T01:02:54;19.70;75.30
63648;DHT22;49792;48.744;9.176;2022-10-31T01:05:19;19.70;75.20
63648;DHT22;49792;48.744;9.176;2022-10-31T01:07:45;19.70;75.30
63648;DHT22;49792;48.744;9.176;2022-10-31T01:10:10;19.70;74.90
63648;DHT22;49792;48.744;9.176;2022-10-31T01:12:37;19.70;75.40
63648;DHT22;49792;48.744;9.176;2022-10-31T01:15:03;19.70;75.00
63648;DHT22;49792;48.744;9.176;2022-10-31T01:17:29;19.70;75.00
63648;DHT22;49792;48.744;9.176;2022-10-31T01:19:54;19.70;75.20
63648;DHT22;49792;48.744;9.176;2022-10-31T01:22:20;19.70;75.20
63648;DHT22;49792;48.744;9.176;2022-10-31T01:24:45;19.70;75.40
63648;DHT22;49792;48.744;9.176;2022-10-31T01:27:11;19.70;75.20
63648;DHT22;49792;48.744;9.176;2022-10-31T01:29:36;19.60;75.00
63648;DHT22;49792;48.744;9.176;2022-10-31T01:32:02;19.70;75.10
63648;DHT22;49792;48.744;9.176;2022-10-31T01:34:27;19.70;75.30
63648;DHT22;49792;48.744;9.176;2022-10-31T01:36:53;19.60;75.10
63648;DHT22;49792;48.744;9.176;2022-10-31T01:39:18;19.70;75.40
63648;DHT22;49792;48.744;9.176;2022-10-31T01:41:48;19.60;75.10
63648;DHT22;49792;48.744;9.176;2022-10-31T01:51:53;19.60;75.20
63648;DHT22;49792;48.744;9.176;2022-10-31T01:54:21;19.60;75.00
63648;DHT22;49792;48.744;9.176;2022-10-31T01:56:48;19.60;75.20
63648;DHT22;49792;48.744;9.176;2022-10-31T01:59:15;19.60;75.20
63648;DHT22;49792;48.744;9.176;2022-10-31T02:01:41;19.60;75.20
63648;DHT22;49792;48.744;9.176;2022-10-31T02:04:07;19.60;75.30
63648;DHT22;49792;48.744;9.176;2022-10-31T02:06:35;19.60;75.00
63648;DHT22;49792;48.744;9.176;2022-10-31T02:09:03;19.50;75.20
63648;DHT22;49792;48.744;9.176;2022-10-31T02:11:29;19.60;75.60
63648;DHT22;49792;48.744;9.176;2022-10-31T02:13:54;19.60;75.30
63648;DHT22;49792;48.744;9.176;2022-10-31T02:16:20;19.60;75.00
63648;DHT22;49792;48.744;9.176;2022-10-31T02:18:45;19.60;75.00
63648;DHT22;49792;48.744;9.176;2022-10-31T02:21:15;19.60;75.10
63648;DHT22;49792;48.744;9.176;2022-10-31T02:36:46;19.60;74.90
63648;DHT22;49792;48.744;9.176;2022-10-31T02:39:24;19.60;74.90
63648;DHT22;49792;48.744;9.176;2022-10-31T02:41:54;19.60;74.60
63648;DHT22;49792;48.744;9.176;2022-10-31T02:46:54;19.60;74.70
63648;DHT22;49792;48.744;9.176;2022-10-31T02:52:28;19.50;74.90
63648;DHT22;49792;48.744;9.176;2022-10-31T02:54:52;19.50;74.50
63648;DHT22;49792;48.744;9.176;2022-10-31T02:57:20;19.50;74.60
63648;DHT22;49792;48.744;9.176;2022-10-31T02:59:48;19.50;74.60
63648;DHT22;49792;48.744;9.176;2022-10-31T03:04:55;19.60;74.50
63648;DHT22;49792;48.744;9.176;2022-10-31T03:07:37;19.50;74.60
63648;DHT22;49792;48.744;9.176;2022-10-31T03:10:23;19.50;74.60
63648;DHT22;49792;48.744;9.176;2022-10-31T03:15:45;19.60;74.60
63648;DHT22;49792;48.744;9.176;2022-10-31T03:18:17;19.50;74.30
63648;DHT22;49792;48.744;9.176;2022-10-31T03:20:48;19.50;74.50
63648;DHT22;49792;48.744;9.176;2022-10-31T03:23:15;19.50;74.20
63648;DHT22;49792;48.744;9.176;2022-10-31T03:25:41;19.50;74.40
63648;DHT22;49792;48.744;9.176;2022-10-31T03:28:08;19.50;74.40
63648;DHT22;49792;48.744;9.176;2022-10-31T03:30:35;19.50;74.60
63648;DHT22;49792;48.744;9.176;2022-10-31T03:33:03;19.50;74.30
63648;DHT22;49792;48.744;9.176;2022-10-31T03:35:31;19.50;74.30
63648;DHT22;49792;48.744;9.176;2022-10-31T03:37:58;19.50;74.30
63648;DHT22;49792;48.744;9.176;2022-10-31T03:40:24;19.50;74.20
63648;DHT22;49792;48.744;9.176;2022-10-31T03:42:53;19.50;74.40
63648;DHT22;49792;48.744;9.176;2022-10-31T03:45:29;19.50;74.50
63648;DHT22;49792;48.744;9.176;2022-10-31T03:47:55;19.50;74.70
63648;DHT22;49792;48.744;9.176;2022-10-31T03:50:21;19.50;74.30
63648;DHT22;49792;48.744;9.176;2022-10-31T03:52:48;19.50;74.40
63648;DHT22;49792;48.744;9.176;2022-10-31T04:00:20;19.50;74.50
63648;DHT22;49792;48.744;9.176;2022-10-31T04:02:51;19.50;74.30
63648;DHT22;49792;48.744;9.176;2022-10-31T04:05:18;19.50;74.20
63648;DHT22;49792;48.744;9.176;2022-10-31T04:07:45;19.50;74.20
63648;DHT22;49792;48.744;9.176;2022-10-31T04:10:12;19.50;74.30
63648;DHT22;49792;48.744;9.176;2022-10-31T04:12:38;19.50;74.10
63648;DHT22;49792;48.744;9.176;2022-10-31T04:15:05;19.50;73.90
63648;DHT22;49792;48.744;9.176;2022-10-31T04:17:32;19.50;74.00
63648;DHT22;49792;48.744;9.176;2022-10-31T04:19:59;19.50;73.60
63648;DHT22;49792;48.744;9.176;2022-10-31T04:22:25;19.50;73.80
63648;DHT22;49792;48.744;9.176;2022-10-31T04:24:51;19.50;73.50
63648;DHT22;49792;48.744;9.176;2022-10-31T04:27:16;19.50;73.40
63648;DHT22;49792;48.744;9.176;2022-10-31T04:29:42;19.50;73.40
63648;DHT22;49792;48.744;9.176;2022-10-31T04:32:07;19.60;73.10
63648;DHT22;49792;48.744;9.176;2022-10-31T04:34:33;19.50;73.00
63648;DHT22;49792;48.744;9.176;2022-10-31T04:36:58;19.60;73.10
63648;DHT22;49792;48.744;9.176;2022-10-31T04:39:24;19.60;73.00
63648;DHT22;49792;48.744;9.176;2022-10-31T04:41:49;19.60;72.80
63648;DHT22;49792;48.744;9.176;2022-10-31T04:44:15;19.60;72.80
63648;DHT22;49792;48.744;9.176;2022-10-31T04:46:40;19.60;72.90
63648;DHT22;49792;48.744;9.176;2022-10-31T04:49:06;19.60;73.40
63648;DHT22;49792;48.744;9.176;2022-10-31T04:51:31;19.60;72.90
63648;DHT22;49792;48.744;9.176;2022-10-31T04:53:57;19.60;72.60
63648;DHT22;49792;48.744;9.176;2022-10-31T04:56:22;19.60;73.00
63648;DHT22;49792;48.744;9.176;2022-10-31T04:58:48;19.60;72.50
63648;DHT22;49792;48.744;9.176;2022-10-31T05:01:13;19.60;72.60
63648;DHT22;49792;48.744;9.176;2022-10-31T05:03:39;19.70;72.60
63648;DHT22;49792;48.744;9.176;2022-10-31T05:06:05;19.60;72.50
63648;DHT22;49792;48.744;9.176;2022-10-31T05:08:31;19.60;72.70
63648;DHT22;49792;48.744;9.176;2022-10-31T05:10:59;19.70;73.00
63648;DHT22;49792;48.744;9.176;2022-10-31T05:13:25;19.70;72.60
63648;DHT22;49792;48.744;9.176;2022-10-31T05:15:50;19.70;72.10
63648;DHT22;49792;48.744;9.176;2022-10-31T05:18:15;19.70;71.90
63648;DHT22;49792;48.744;9.176;2022-10-31T05:20:41;19.70;72.40
63648;DHT22;49792;48.744;9.176;2022-10-31T05:23:06;19.70;72.90
63648;DHT22;49792;48.744;9.176;2022-10-31T05:25:32;19.80;72.60
63648;DHT22;49792;48.744;9.176;2022-10-31T05:27:57;19.80;72.50
63648;DHT22;49792;48.744;9.176;2022-10-31T05:30:27;19.80;72.00
63648;DHT22;49792;48.744;9.176;2022-10-31T05:32:53;19.80;71.90
63648;DHT22;49792;48.744;9.176;2022-10-31T05:35:20;19.90;73.60
63648;DHT22;49792;48.744;9.176;2022-10-31T05:37:45;19.90;71.80
63648;DHT22;49792;48.744;9.176;2022-10-31T05:40:12;19.90;72.40
63648;DHT22;49792;48.744;9.176;2022-10-31T05:42:38;19.80;72.30
63648;DHT22;49792;48.744;9.176;2022-10-31T05:45:04;19.80;72.50
63648;DHT22;49792;48.744;9.176;2022-10-31T05:47:29;19.80;72.80
63648;DHT22;49792;48.744;9.176;2022-10-31T05:49:55;19.80;72.70
63648;DHT22;49792;48.744;9.176;2022-10-31T05:52:20;19.80;72.30
63648;DHT22;49792;48.744;9.176;2022-10-31T05:54:46;19.70;72.60
63648;DHT22;49792;48.744;9.176;2022-10-31T05:57:11;19.70;73.10
63648;DHT22;49792;48.744;9.176;2022-10-31T05:59:37;19.70;72.60
63648;DHT22;49792;48.744;9.176;2022-10-31T06:02:02;19.70;72.60
63648;DHT22;49792;48.744;9.176;2022-10-31T06:04:28;19.80;73.40
63648;DHT22;49792;48.744;9.176;2022-10-31T06:06:53;19.90;72.60
63648;DHT22;49792;48.744;9.176;2022-10-31T06:09:19;19.90;71.90
63648;DHT22;49792;48.744;9.176;2022-10-31T06:11:44;20.10;74.10
63648;DHT22;49792;48.744;9.176;2022-10-31T06:14:10;20.30;72.80
63648;DHT22;49792;48.744;9.176;2022-10-31T06:16:35;20.10;71.90
63648;DHT22;49792;48.744;9.176;2022-10-31T06:19:00;20.10;73.10
63648;DHT22;49792;48.744;9.176;2022-10-31T06:21:26;20.10;72.20
63648;DHT22;49792;48.744;9.176;2022-10-31T06:23:51;20.10;72.00
63648;DHT22;49792;48.744;9.176;2022-10-31T06:26:17;20.00;71.10
63648;DHT22;49792;48.744;9.176;2022-10-31T06:28:42;20.00;72.20
63648;DHT22;49792;48.744;9.176;2022-10-31T06:31:08;17.30;63.10
63648;DHT22;49792;48.744;9.176;2022-10-31T06:33:33;15.60;75.80
63648;DHT22;49792;48.744;9.176;2022-10-31T06:35:59;17.40;74.60
63648;DHT22;49792;48.744;9.176;2022-10-31T06:38:25;18.50;71.90
63648;DHT22;49792;48.744;9.176;2022-10-31T06:40:51;19.00;70.60
63648;DHT22;49792;48.744;9.176;2022-10-31T06:43:17;19.30;70.40
63648;DHT22;49792;48.744;9.176;2022-10-31T06:45:42;19.50;69.30
63648;DHT22;49792;48.744;9.176;2022-10-31T06:48:08;19.50;68.00
63648;DHT22;49792;48.744;9.176;2022-10-31T06:50:33;19.50;67.70
63648;DHT22;49792;48.744;9.176;2022-10-31T06:52:59;19.40;66.70
63648;DHT22;49792;48.744;9.176;2022-10-31T06:55:25;19.50;69.00
63648;DHT22;49792;48.744;9.176;2022-10-31T06:57:51;19.70;68.80
63648;DHT22;49792;48.744;9.176;2022-10-31T07:00:17;19.70;68.80
63648;DHT22;49792;48.744;9.176;2022-10-31T07:02:42;19.70;69.50
63648;DHT22;49792;48.744;9.176;2022-10-31T07:05:08;19.80;69.80
63648;DHT22;49792;48.744;9.176;2022-10-31T07:07:33;19.70;69.70
63648;DHT22;49792;48.744;9.176;2022-10-31T07:09:59;19.70;68.90
63648;DHT22;49792;48.744;9.176;2022-10-31T07:12:24;19.70;66.90
63648;DHT22;49792;48.744;9.176;2022-10-31T07:14:49;19.50;68.10
63648;DHT22;49792;48.744;9.176;2022-10-31T07:17:15;19.60;67.90
63648;DHT22;49792;48.744;9.176;2022-10-31T07:19:41;19.60;67.80
63648;DHT22;49792;48.744;9.176;2022-10-31T07:22:06;19.60;67.80
63648;DHT22;49792;48.744;9.176;2022-10-31T07:24:31;19.60;68.20
63648;DHT22;49792;48.744;9.176;2022-10-31T07:26:57;19.60;68.60
63648;DHT22;49792;48.744;9.176;2022-10-31T07:29:22;19.60;68.80
63648;DHT22;49792;48.744;9.176;2022-10-31T07:31:48;19.60;69.00
63648;DHT22;49792;48.744;9.176;2022-10-31T07:34:13;19.50;69.00
63648;DHT22;49792;48.744;9.176;2022-10-31T07:36:39;19.50;69.20
63648;DHT22;49792;48.744;9.176;2022-10-31T07:39:04;19.60;69.50
63648;DHT22;49792;48.744;9.176;2022-10-31T07:41:30;19.50;69.40
63648;DHT22;49792;48.744;9.176;2022-10-31T07:43:55;19.50;69.60
63648;DHT22;49792;48.744;9.176;2022-10-31T07:46:21;19.50;69.80
63648;DHT22;49792;48.744;9.176;2022-10-31T07:48:47;19.50;69.60
63648;DHT22;49792;48.744;9.176;2022-10-31T07:51:12;19.50;69.90
63648;DHT22;49792;48.744;9.176;2022-10-31T07:53:38;19.50;70.10
63648;DHT22;49792;48.744;9.176;2022-10-31T07:56:03;19.50;70.00
63648;DHT22;49792;48.744;9.176;2022-10-31T07:58:29;19.50;70.00
63648;DHT22;49792;48.744;9.176;2022-10-31T08:00:54;19.50;69.90
63648;DHT22;49792;48.744;9.176;2022-10-31T08:03:20;19.50;69.90
63648;DHT22;49792;48.744;9.176;2022-10-31T08:05:45;19.50;70.00
63648;DHT22;49792;48.744;9.176;2022-10-31T08:08:11;19.50;69.90
63648;DHT22;49792;48.744;9.176;2022-10-31T08:10:37;19.50;69.90
63648;DHT22;49792;48.744;9.176;2022-10-31T08:13:04;19.50;70.00
63648;DHT22;49792;48.744;9.176;2022-10-31T08:15:30;19.50;70.30
63648;DHT22;49792;48.744;9.176;2022-10-31T08:17:56;19.50;70.30
63648;DHT22;49792;48.744;9.176;2022-10-31T08:20:21;19.50;70.20
63648;DHT22;49792;48.744;9.176;2022-10-31T08:22:56;19.50;70.30
63648;DHT22;49792;48.744;9.176;2022-10-31T08:25:22;19.50;70.20
63648;DHT22;49792;48.744;9.176;2022-10-31T08:27:49;19.50;70.30
63648;DHT22;49792;48.744;9.176;2022-10-31T08:30:14;19.50;70.30
63648;DHT22;49792;48.744;9.176;2022-10-31T08:32:40;19.50;70.40
63648;DHT22;49792;48.744;9.176;2022-10-31T08:35:05;19.40;70.20
63648;DHT22;49792;48.744;9.176;2022-10-31T08:37:31;19.50;71.20
63648;DHT22;49792;48.744;9.176;2022-10-31T08:39:56;19.40;70.10
63648;DHT22;49792;48.744;9.176;2022-10-31T08:42:22;19.50;70.30
63648;DHT22;49792;48.744;9.176;2022-10-31T08:44:47;19.50;70.20
63648;DHT22;49792;48.744;9.176;2022-10-31T08:47:13;19.50;70.10
63648;DHT22;49792;48.744;9.176;2022-10-31T08:49:38;19.50;70.20
63648;DHT22;49792;48.744;9.176;2022-10-31T08:52:04;19.50;70.40
63648;DHT22;49792;48.744;9.176;2022-10-31T08:54:29;19.50;70.30
63648;DHT22;49792;48.744;9.176;2022-10-31T08:56:55;19.50;70.10
63648;DHT22;49792;48.744;9.176;2022-10-31T08:59:20;19.50;70.10
63648;DHT22;49792;48.744;9.176;2022-10-31T09:01:46;19.50;70.30
63648;DHT22;49792;48.744;9.176;2022-10-31T09:04:11;19.50;70.30
63648;DHT22;49792;48.744;9.176;2022-10-31T09:06:37;19.50;70.20
63648;DHT22;49792;48.744;9.176;2022-10-31T09:09:02;19.40;70.20
63648;DHT22;49792;48.744;9.176;2022-10-31T09:11:29;19.50;70.30
63648;DHT22;49792;48.744;9.176;2022-10-31T09:13:55;19.40;70.30
63648;DHT22;49792;48.744;9.176;2022-10-31T09:16:20;19.50;70.60
63648;DHT22;49792;48.744;9.176;2022-10-31T09:18:46;19.50;70.60
63648;DHT22;49792;48.744;9.176;2022-10-31T09:21:11;19.50;70.60
63648;DHT22;49792;48.744;9.176;2022-10-31T09:23:37;19.40;70.60
63648;DHT22;49792;48.744;9.176;2022-10-31T09:26:02;19.50;70.70
63648;DHT22;49792;48.744;9.176;2022-10-31T09:28:28;19.50;70.60
63648;DHT22;49792;48.744;9.176;2022-10-31T09:30:54;19.40;70.40
63648;DHT22;49792;48.744;9.176;2022-10-31T09:33:19;19.40;70.70
63648;DHT22;49792;48.744;9.176;2022-10-31T09:35:45;19.40;70.70
63648;DHT22;49792;48.744;9.176;2022-10-31T09:40:47;19.40;70.70
63648;DHT22;49792;48.744;9.176;2022-10-31T09:43:50;19.40;70.90
63648;DHT22;49792;48.744;9.176;2022-10-31T09:46:09;19.40;70.70
63648;DHT22;49792;48.744;9.176;2022-10-31T09:51:22;19.40;70.80
63648;DHT22;49792;48.744;9.176;2022-10-31T09:56:17;19.40;72.00
63648;DHT22;49792;48.744;9.176;2022-10-31T09:58:48;19.40;71.10
63648;DHT22;49792;48.744;9.176;2022-10-31T10:01:25;19.40;71.10
63648;DHT22;49792;48.744;9.176;2022-10-31T10:03:53;19.40;70.70
63648;DHT22;49792;48.744;9.176;2022-10-31T10:06:23;19.40;70.90
63648;DHT22;49792;48.744;9.176;2022-10-31T10:08:49;19.40;70.80
63648;DHT22;49792;48.744;9.176;2022-10-31T10:19:02;19.50;70.90
63648;DHT22;49792;48.744;9.176;2022-10-31T10:26:36;19.50;71.10
63648;DHT22;49792;48.744;9.176;2022-10-31T10:31:48;19.60;71.20
63648;DHT22;49792;48.744;9.176;2022-10-31T10:34:22;19.60;71.10
63648;DHT22;49792;48.744;9.176;2022-10-31T10:39:22;19.60;71.20
63648;DHT22;49792;48.744;9.176;2022-10-31T10:41:49;19.60;71.30
63648;DHT22;49792;48.744;9.176;2022-10-31T10:44:36;19.50;71.40
63648;DHT22;49792;48.744;9.176;2022-10-31T10:47:21;19.60;71.60
63648;DHT22;49792;48.744;9.176;2022-10-31T10:50:27;19.50;71.50
63648;DHT22;49792;48.744;9.176;2022-10-31T10:53:00;19.50;71.50
63648;DHT22;49792;48.744;9.176;2022-10-31T10:58:24;19.50;71.70
63648;DHT22;49792;48.744;9.176;2022-10-31T11:00:50;19.50;71.70
63648;DHT22;49792;48.744;9.176;2022-10-31T11:03:18;19.50;72.00
63648;DHT22;49792;48.744;9.176;2022-10-31T11:05:56;19.60;72.10
63648;DHT22;49792;48.744;9.176;2022-10-31T11:08:30;19.50;72.20
63648;DHT22;49792;48.744;9.176;2022-10-31T11:11:00;19.60;71.90
63648;DHT22;49792;48.744;9.176;2022-10-31T11:13:26;19.60;72.20
63648;DHT22;49792;48.744;9.176;2022-10-31T11:15:57;19.60;72.10
63648;DHT22;49792;48.744;9.176;2022-10-31T11:18:29;19.60;71.90
63648;DHT22;49792;48.744;9.176;2022-10-31T11:20:56;19.60;71.80
63648;DHT22;49792;48.744;9.176;2022-10-31T11:23:23;19.60;71.60
63648;DHT22;49792;48.744;9.176;2022-10-31T11:26:02;19.60;71.70
63648;DHT22;49792;48.744;9.176;2022-10-31T11:28:28;19.60;71.60
63648;DHT22;49792;48.744;9.176;2022-10-31T11:33:27;19.60;71.70
63648;DHT22;49792;48.744;9.176;2022-10-31T11:35:54;19.60;71.70
63648;DHT22;49792;48.744;9.176;2022-10-31T11:38:21;19.60;71.70
63648;DHT22;49792;48.744;9.176;2022-10-31T11:40:51;19.60;71.70
63648;DHT22;49792;48.744;9.176;2022-10-31T11:43:17;19.60;71.60
63648;DHT22;49792;48.744;9.176;2022-10-31T11:45:43;19.60;71.60
63648;DHT22;49792;48.744;9.176;2022-10-31T11:48:16;19.60;71.70
63648;DHT22;49792;48.744;9.176;2022-10-31T11:50:42;19.50;71.60
63648;DHT22;49792;48.744;9.176;2022-10-31T11:53:13;19.60;71.70
63648;DHT22;49792;48.744;9.176;2022-10-31T11:55:40;19.60;71.60
63648;DHT22;49792;48.744;9.176;2022-10-31T11:58:19;19.60;71.60
63648;DHT22;49792;48.744;9.176;2022-10-31T12:00:48;19.60;71.70
63648;DHT22;49792;48.744;9.176;2022-10-31T12:05:59;19.50;71.70
63648;DHT22;49792;48.744;9.176;2022-10-31T12:08:27;19.50;71.70
63648;DHT22;49792;48.744;9.176;2022-10-31T12:10:57;19.60;71.80
63648;DHT22;49792;48.744;9.176;2022-10-31T12:15:55;19.50;71.70
63648;DHT22;49792;48.744;9.176;2022-10-31T12:24:30;19.50;71.60
63648;DHT22;49792;48.744;9.176;2022-10-31T12:29:36;19.50;71.60
63648;DHT22;49792;48.744;9.176;2022-10-31T12:34:52;19.50;71.70
63648;DHT22;49792;48.744;9.176;2022-10-31T12:37:25;19.50;71.60
63648;DHT22;49792;48.744;9.176;2022-10-31T12:52:56;19.50;71.80
63648;DHT22;49792;48.744;9.176;2022-10-31T12:57:52;19.50;71.80
63648;DHT22;49792;48.744;9.176;2022-10-31T13:00:19;19.50;71.90
63648;DHT22;49792;48.744;9.176;2022-10-31T13:02:54;19.40;71.70
63648;DHT22;49792;48.744;9.176;2022-10-31T13:08:06;19.40;71.80
63648;DHT22;49792;48.744;9.176;2022-10-31T13:10:40;19.50;71.80
63648;DHT22;49792;48.744;9.176;2022-10-31T13:16:24;19.40;71.80
63648;DHT22;49792;48.744;9.176;2022-10-31T13:18:51;19.40;71.80
63648;DHT22;49792;48.744;9.176;2022-10-31T13:21:25;19.40;71.70
63648;DHT22;49792;48.744;9.176;2022-10-31T13:23:51;19.40;71.90
63648;DHT22;49792;48.744;9.176;2022-10-31T13:29:23;19.40;71.90
63648;DHT22;49792;48.744;9.176;2022-10-31T13:31:50;19.40;71.90
63648;DHT22;49792;48.744;9.176;2022-10-31T13:42:11;19.40;71.90
63648;DHT22;49792;48.744;9.176;2022-10-31T13:44:38;19.40;71.80
63648;DHT22;49792;48.744;9.176;2022-10-31T13:47:20;19.50;71.80
63648;DHT22;49792;48.744;9.176;2022-10-31T13:49:45;19.50;71.80
63648;DHT22;49792;48.744;9.176;2022-10-31T13:52:12;19.40;71.80
63648;DHT22;49792;48.744;9.176;2022-10-31T13:57:24;19.50;72.10
63648;DHT22;49792;48.744;9.176;2022-10-31T13:59:52;19.50;72.60
63648;DHT22;49792;48.744;9.176;2022-10-31T14:02:21;19.50;73.00
63648;DHT22;49792;48.744;9.176;2022-10-31T14:04:54;19.50;72.70
63648;DHT22;49792;48.744;9.176;2022-10-31T14:07:21;19.50;72.50
63648;DHT22;49792;48.744;9.176;2022-10-31T14:12:27;19.50;72.50
63648;DHT22;49792;48.744;9.176;2022-10-31T14:14:55;19.50;72.50
63648;DHT22;49792;48.744;9.176;2022-10-31T14:17:23;19.50;72.50
63648;DHT22;49792;48.744;9.176;2022-10-31T14:19:56;19.50;72.50
63648;DHT22;49792;48.744;9.176;2022-10-31T14:22:28;19.40;72.40
63648;DHT22;49792;48.744;9.176;2022-10-31T14:24:53;19.50;72.50
63648;DHT22;49792;48.744;9.176;2022-10-31T14:29:44;19.40;72.40
63648;DHT22;49792;48.744;9.176;2022-10-31T14:34:41;19.40;72.40
63648;DHT22;49792;48.744;9.176;2022-10-31T14:39:41;19.40;72.40
63648;DHT22;49792;48.744;9.176;2022-10-31T14:47:16;19.40;72.70
63648;DHT22;49792;48.744;9.176;2022-10-31T14:52:29;19.50;73.40
63648;DHT22;49792;48.744;9.176;2022-10-31T14:54:55;19.50;73.50
63648;DHT22;49792;48.744;9.176;2022-10-31T14:59:57;19.50;73.00
63648;DHT22;49792;48.744;9.176;2022-10-31T15:02:29;19.50;73.20
63648;DHT22;49792;48.744;9.176;2022-10-31T15:04:57;19.50;73.30
63648;DHT22;49792;48.744;9.176;2022-10-31T15:07:24;19.50;73.30
63648;DHT22;49792;48.744;9.176;2022-10-31T15:10:15;19.50;73.50
63648;DHT22;49792;48.744;9.176;2022-10-31T15:12:44;19.50;73.50
63648;DHT22;49792;48.744;9.176;2022-10-31T15:15:13;19.50;73.40
63648;DHT22;49792;48.744;9.176;2022-10-31T15:17:44;19.50;73.60
63648;DHT22;49792;48.744;9.176;2022-10-31T15:20:12;19.50;73.60
63648;DHT22;49792;48.744;9.176;2022-10-31T15:22:42;19.40;72.10
63648;DHT22;49792;48.744;9.176;2022-10-31T15:25:18;19.40;71.60
63648;DHT22;49792;48.744;9.176;2022-10-31T15:27:43;19.30;71.10
63648;DHT22;49792;48.744;9.176;2022-10-31T15:30:19;19.30;71.70
63648;DHT22;49792;48.744;9.176;2022-10-31T15:32:45;19.30;72.80
63648;DHT22;49792;48.744;9.176;2022-10-31T15:35:14;19.30;72.90
63648;DHT22;49792;48.744;9.176;2022-10-31T15:37:44;19.40;72.60
63648;DHT22;49792;48.744;9.176;2022-10-31T15:40:16;19.50;72.50
63648;DHT22;49792;48.744;9.176;2022-10-31T15:42:42;19.40;72.60
63648;DHT22;49792;48.744;9.176;2022-10-31T15:47:34;19.40;73.10
63648;DHT22;49792;48.744;9.176;2022-10-31T15:50:00;19.50;73.60
63648;DHT22;49792;48.744;9.176;2022-10-31T15:55:17;19.50;73.70
63648;DHT22;49792;48.744;9.176;2022-10-31T15:57:44;19.40;73.60
63648;DHT22;49792;48.744;9.176;2022-10-31T16:00:26;19.50;73.50
63648;DHT22;49792;48.744;9.176;2022-10-31T16:05:38;19.40;73.50
63648;DHT22;49792;48.744;9.176;2022-10-31T16:08:04;19.40;73.60
63648;DHT22;49792;48.744;9.176;2022-10-31T16:10:32;19.40;73.60
63648;DHT22;49792;48.744;9.176;2022-10-31T16:12:58;19.50;73.70
63648;DHT22;49792;48.744;9.176;2022-10-31T16:15:25;19.40;73.50
63648;DHT22;49792;48.744;9.176;2022-10-31T16:17:51;19.40;73.50
63648;DHT22;49792;48.744;9.176;2022-10-31T16:20:25;19.40;73.50
63648;DHT22;49792;48.744;9.176;2022-10-31T16:22:51;19.40;73.50
63648;DHT22;49792;48.744;9.176;2022-10-31T16:25:20;19.40;73.50
63648;DHT22;49792;48.744;9.176;2022-10-31T16:27:48;19.40;73.50
63648;DHT22;49792;48.744;9.176;2022-10-31T16:32:59;19.40;73.50
63648;DHT22;49792;48.744;9.176;2022-10-31T16:37:52;19.40;73.40
63648;DHT22;49792;48.744;9.176;2022-10-31T16:40:18;19.40;73.50
63648;DHT22;49792;48.744;9.176;2022-10-31T16:42:44;19.40;73.50
63648;DHT22;49792;48.744;9.176;2022-10-31T16:45:19;19.40;73.50
63648;DHT22;49792;48.744;9.176;2022-10-31T16:47:45;19.40;73.50
63648;DHT22;49792;48.744;9.176;2022-10-31T16:50:12;19.30;73.40
63648;DHT22;49792;48.744;9.176;2022-10-31T16:52:38;19.40;73.40
63648;DHT22;49792;48.744;9.176;2022-10-31T16:55:03;19.30;73.30
63648;DHT22;49792;48.744;9.176;2022-10-31T16:57:29;19.30;73.30
63648;DHT22;49792;48.744;9.176;2022-10-31T16:59:55;19.30;73.40
63648;DHT22;49792;48.744;9.176;2022-10-31T17:02:21;19.30;73.40
63648;DHT22;49792;48.744;9.176;2022-10-31T17:04:47;19.40;73.60
63648;DHT22;49792;48.744;9.176;2022-10-31T17:07:12;19.40;74.00
63648;DHT22;49792;48.744;9.176;2022-10-31T17:09:38;19.40;74.10
63648;DHT22;49792;48.744;9.176;2022-10-31T17:12:04;19.40;73.90
63648;DHT22;49792;48.744;9.176;2022-10-31T17:14:29;19.30;74.10
63648;DHT22;49792;48.744;9.176;2022-10-31T17:16:55;19.20;71.80
63648;DHT22;49792;48.744;9.176;2022-10-31T17:19:21;19.20;73.00
63648;DHT22;49792;48.744;9.176;2022-10-31T17:21:46;19.10;71.00
63648;DHT22;49792;48.744;9.176;2022-10-31T17:24:12;19.10;71.40
63648;DHT22;49792;48.744;9.176;2022-10-31T17:26:38;19.00;72.70
63648;DHT22;49792;48.744;9.176;2022-10-31T17:29:04;19.10;73.30
63648;DHT22;49792;48.744;9.176;2022-10-31T17:31:30;19.10;73.20
63648;DHT22;49792;48.744;9.176;2022-10-31T17:33:57;19.20;72.80
63648;DHT22;49792;48.744;9.176;2022-10-31T17:36:22;19.30;72.70
63648;DHT22;49792;48.744;9.176;2022-10-31T17:38:48;19.40;72.10
63648;DHT22;49792;48.744;9.176;2022-10-31T17:41:13;19.40;72.00
63648;DHT22;49792;48.744;9.176;2022-10-31T17:43:39;19.20;71.20
63648;DHT22;49792;48.744;9.176;2022-10-31T17:46:05;19.20;71.60
63648;DHT22;49792;48.744;9.176;2022-10-31T17:48:32;19.30;71.70
63648;DHT22;49792;48.744;9.176;2022-10-31T17:51:01;19.30;71.90
63648;DHT22;49792;48.744;9.176;2022-10-31T17:53:30;19.30;71.70
63648;DHT22;49792;48.744;9.176;2022-10-31T17:56:03;19.30;71.90
63648;DHT22;49792;48.744;9.176;2022-10-31T17:58:28;19.30;71.70
63648;DHT22;49792;48.744;9.176;2022-10-31T18:00:54;19.40;71.80
63648;DHT22;49792;48.744;9.176;2022-10-31T18:03:19;19.20;71.20
63648;DHT22;49792;48.744;9.176;2022-10-31T18:05:54;19.20;71.60